sensor_id;sensor_type;location;lat;lon;timestamp;P1;durP1;ratioP1;P2;durP2;ratioP2
10643;SDS011;5370;50.132;8.626;2024-02-26T00:01:39;2.23;;;1.40;;
10643;SDS011;5370;50.132;8.626;2024-02-26T00:04:04;3.77;;;3.37;;
10643;SDS011;5370;50.132;8.626;2024-02-26T00:06:30;2.47;;;2.27;;
10643;SDS011;5370;50.132;8.626;2024-02-26T00:08:56;2.63;;;2.17;;
10643;SDS011;5370;50.132;8.626;2024-02-26T00:11:22;3.87;;;3.00;;
10643;SDS011;5370;50.132;8.626;2024-02-26T00:13:47;2.03;;;1.63;;
10643;SDS011;5370;50.132;8.626;2024-02-26T00:16:13;1.43;;;1.33;;
10643;SDS011;5370;50.132;8.626;2024-02-26T00:18:38;5.07;;;1.53;;
10643;SDS011;5370;50.132;8.626;2024-02-26T00:21:04;1.20;;;1.10;;
10643;SDS011;5370;50.132;8.626;2024-02-26T00:23:30;1.83;;;1.30;;
10643;SDS011;5370;50.132;8.626;2024-02-26T00:25:55;3.63;;;1.20;;
10643;SDS011;5370;50.132;8.626;2024-02-26T00:28:21;2.00;;;1.30;;
10643;SDS011;5370;50.132;8.626;2024-02-26T00:30:47;1.13;;;1.03;;
10643;SDS011;5370;50.132;8.626;2024-02-26T00:33:14;0.80;;;0.80;;
10643;SDS011;5370;50.132;8.626;2024-02-26T00:35:41;0.90;;;0.90;;
10643;SDS011;5370;50.132;8.626;2024-02-26T00:38:07;2.17;;;1.13;;
10643;SDS011;5370;50.132;8.626;2024-02-26T00:40:33;9.67;;;1.40;;
10643;SDS011;5370;50.132;8.626;2024-02-26T00:42:59;1.67;;;1.30;;
10643;SDS011;5370;50.132;8.626;2024-02-26T00:45:25;1.87;;;1.23;;
10643;SDS011;5370;50.132;8.626;2024-02-26T00:47:50;2.07;;;1.00;;
10643;SDS011;5370;50.132;8.626;2024-02-26T00:50:16;1.80;;;1.03;;
10643;SDS011;5370;50.132;8.626;2024-02-26T00:52:42;1.23;;;1.13;;
10643;SDS011;5370;50.132;8.626;2024-02-26T00:55:07;1.37;;;1.20;;
10643;SDS011;5370;50.132;8.626;2024-02-26T00:57:33;1.30;;;1.20;;
10643;SDS011;5370;50.132;8.626;2024-02-26T00:59:59;1.07;;;1.00;;
10643;SDS011;5370;50.132;8.626;2024-02-26T01:02:25;1.30;;;1.10;;
10643;SDS011;5370;50.132;8.626;2024-02-26T01:04:51;1.33;;;1.17;;
10643;SDS011;5370;50.132;8.626;2024-02-26T01:07:16;1.73;;;1.30;;
10643;SDS011;5370;50.132;8.626;2024-02-26T01:09:42;1.13;;;0.93;;
10643;SDS011;5370;50.132;8.626;2024-02-26T01:12:08;3.87;;;1.50;;
10643;SDS011;5370;50.132;8.626;2024-02-26T01:14:33;1.20;;;1.10;;
10643;SDS011;5370;50.132;8.626;2024-02-26T01:16:59;1.00;;;0.87;;
10643;SDS011;5370;50.132;8.626;2024-02-26T01:19:24;1.83;;;1.00;;
10643;SDS011;5370;50.132;8.626;2024-02-26T01:21:50;1.70;;;1.43;;
10643;SDS011;5370;50.132;8.626;2024-02-26T01:24:16;1.23;;;1.10;;
10643;SDS011;5370;50.132;8.626;2024-02-26T01:26:42;1.30;;;1.20;;
10643;SDS011;5370;50.132;8.626;2024-02-26T01:29:07;1.27;;;1.17;;
10643;SDS011;5370;50.132;8.626;2024-02-26T01:31:33;2.30;;;1.50;;
10643;SDS011;5370;50.132;8.626;2024-02-26T01:34:00;1.47;;;1.37;;
10643;SDS011;5370;50.132;8.626;2024-02-26T01:36:26;1.63;;;1.53;;
10643;SDS011;5370;50.132;8.626;2024-02-26T01:38:52;2.10;;;1.47;;
10643;SDS011;5370;50.132;8.626;2024-02-26T01:41:17;1.33;;;1.23;;
10643;SDS011;5370;50.132;8.626;2024-02-26T01:43:43;4.03;;;1.93;;
10643;SDS011;5370;50.132;8.626;2024-02-26T01:46:10;1.47;;;1.37;;
10643;SDS011;5370;50.132;8.626;2024-02-26T01:48:41;1.70;;;1.37;;
10643;SDS011;5370;50.132;8.626;2024-02-26T01:51:07;3.77;;;2.80;;
10643;SDS011;5370;50.132;8.626;2024-02-26T01:53:33;2.27;;;1.63;;
10643;SDS011;5370;50.132;8.626;2024-02-26T01:55:59;1.87;;;1.53;;
10643;SDS011;5370;50.132;8.626;2024-02-26T01:58:25;2.03;;;1.83;;
10643;SDS011;5370;50.132;8.626;2024-02-26T02:00:51;2.40;;;1.17;;
10643;SDS011;5370;50.132;8.626;2024-02-26T02:03:16;1.90;;;1.60;;
10643;SDS011;5370;50.132;8.626;2024-02-26T02:05:42;2.07;;;1.87;;
10643;SDS011;5370;50.132;8.626;2024-02-26T02:08:09;2.47;;;1.63;;
10643;SDS011;5370;50.132;8.626;2024-02-26T02:10:36;2.73;;;1.77;;
10643;SDS011;5370;50.132;8.626;2024-02-26T02:13:03;1.80;;;1.70;;
10643;SDS011;5370;50.132;8.626;2024-02-26T02:15:29;2.17;;;1.97;;
10643;SDS011;5370;50.132;8.626;2024-02-26T02:17:54;2.47;;;1.87;;
10643;SDS011;5370;50.132;8.626;2024-02-26T02:20:24;2.17;;;1.60;;
10643;SDS011;5370;50.132;8.626;2024-02-26T02:22:59;1.93;;;1.83;;
10643;SDS011;5370;50.132;8.626;2024-02-26T02:25:25;2.23;;;1.83;;
10643;SDS011;5370;50.132;8.626;2024-02-26T02:27:51;1.60;;;1.50;;
10643;SDS011;5370;50.132;8.626;2024-02-26T02:30:19;2.37;;;1.67;;
10643;SDS011;5370;50.132;8.626;2024-02-26T02:32:46;2.70;;;1.77;;
10643;SDS011;5370;50.132;8.626;2024-02-26T02:35:11;2.40;;;2.03;;
10643;SDS011;5370;50.132;8.626;2024-02-26T02:37:37;2.33;;;1.80;;
10643;SDS011;5370;50.132;8.626;2024-02-26T02:40:03;3.40;;;2.37;;
10643;SDS011;5370;50.132;8.626;2024-02-26T02:42:30;2.20;;;1.60;;
10643;SDS011;5370;50.132;8.626;2024-02-26T02:44:55;3.47;;;1.60;;
10643;SDS011;5370;50.132;8.626;2024-02-26T02:47:21;2.00;;;1.80;;
10643;SDS011;5370;50.132;8.626;2024-02-26T02:49:46;2.17;;;1.80;;
10643;SDS011;5370;50.132;8.626;2024-02-26T02:52:12;2.27;;;2.00;;
10643;SDS011;5370;50.132;8.626;2024-02-26T02:54:37;2.40;;;1.57;;
10643;SDS011;5370;50.132;8.626;2024-02-26T02:57:05;2.10;;;1.90;;
10643;SDS011;5370;50.132;8.626;2024-02-26T02:59:31;3.60;;;1.73;;
10643;SDS011;5370;50.132;8.626;2024-02-26T03:01:56;1.80;;;1.70;;
10643;SDS011;5370;50.132;8.626;2024-02-26T03:04:22;1.70;;;1.60;;
10643;SDS011;5370;50.132;8.626;2024-02-26T03:06:47;3.13;;;1.93;;
10643;SDS011;5370;50.132;8.626;2024-02-26T03:09:13;1.73;;;1.63;;
10643;SDS011;5370;50.132;8.626;2024-02-26T03:11:38;3.47;;;2.53;;
10643;SDS011;5370;50.132;8.626;2024-02-26T03:14:04;4.93;;;2.40;;
10643;SDS011;5370;50.132;8.626;2024-02-26T03:16:31;2.53;;;2.10;;
10643;SDS011;5370;50.132;8.626;2024-02-26T03:18:57;2.47;;;2.00;;
10643;SDS011;5370;50.132;8.626;2024-02-26T03:21:24;2.47;;;1.87;;
10643;SDS011;5370;50.132;8.626;2024-02-26T03:23:50;2.17;;;1.77;;
10643;SDS011;5370;50.132;8.626;2024-02-26T03:26:15;4.27;;;2.37;;
10643;SDS011;5370;50.132;8.626;2024-02-26T03:28:41;3.83;;;1.93;;
10643;SDS011;5370;50.132;8.626;2024-02-26T03:31:07;17.67;;;11.30;;
10643;SDS011;5370;50.132;8.626;2024-02-26T03:33:33;6.27;;;3.70;;
10643;SDS011;5370;50.132;8.626;2024-02-26T03:35:59;1.77;;;1.67;;
10643;SDS011;5370;50.132;8.626;2024-02-26T03:38:24;8.97;;;5.50;;
10643;SDS011;5370;50.132;8.626;2024-02-26T03:40:50;7.23;;;4.97;;
10643;SDS011;5370;50.132;8.626;2024-02-26T03:43:16;9.80;;;7.00;;
10643;SDS011;5370;50.132;8.626;2024-02-26T03:45:42;3.90;;;2.93;;
10643;SDS011;5370;50.132;8.626;2024-02-26T03:48:07;6.70;;;4.70;;
10643;SDS011;5370;50.132;8.626;2024-02-26T03:50:33;2.27;;;1.83;;
10643;SDS011;5370;50.132;8.626;2024-02-26T03:52:59;2.23;;;1.50;;
10643;SDS011;5370;50.132;8.626;2024-02-26T03:55:25;5.23;;;2.67;;
10643;SDS011;5370;50.132;8.626;2024-02-26T03:57:53;3.23;;;2.00;;
10643;SDS011;5370;50.132;8.626;2024-02-26T04:00:19;2.33;;;2.00;;
10643;SDS011;5370;50.132;8.626;2024-02-26T04:02:46;2.67;;;2.13;;
10643;SDS011;5370;50.132;8.626;2024-02-26T04:05:12;2.50;;;2.00;;
10643;SDS011;5370;50.132;8.626;2024-02-26T04:07:38;3.90;;;2.00;;
10643;SDS011;5370;50.132;8.626;2024-02-26T04:10:10;2.70;;;2.10;;
10643;SDS011;5370;50.132;8.626;2024-02-26T04:12:38;1.83;;;1.70;;
10643;SDS011;5370;50.132;8.626;2024-02-26T04:15:10;2.93;;;2.07;;
10643;SDS011;5370;50.132;8.626;2024-02-26T04:17:36;2.57;;;2.17;;
10643;SDS011;5370;50.132;8.626;2024-02-26T04:20:02;2.33;;;1.90;;
10643;SDS011;5370;50.132;8.626;2024-02-26T04:22:28;2.80;;;2.20;;
10643;SDS011;5370;50.132;8.626;2024-02-26T04:24:54;2.93;;;2.20;;
10643;SDS011;5370;50.132;8.626;2024-02-26T04:27:19;4.10;;;2.17;;
10643;SDS011;5370;50.132;8.626;2024-02-26T04:29:45;3.53;;;2.60;;
10643;SDS011;5370;50.132;8.626;2024-02-26T04:32:10;4.00;;;2.00;;
10643;SDS011;5370;50.132;8.626;2024-02-26T04:34:36;2.40;;;2.00;;
10643;SDS011;5370;50.132;8.626;2024-02-26T04:37:01;2.10;;;1.97;;
10643;SDS011;5370;50.132;8.626;2024-02-26T04:39:27;2.90;;;2.00;;
10643;SDS011;5370;50.132;8.626;2024-02-26T04:41:52;2.37;;;1.93;;
10643;SDS011;5370;50.132;8.626;2024-02-26T04:44:18;2.40;;;2.20;;
10643;SDS011;5370;50.132;8.626;2024-02-26T04:46:43;2.40;;;2.13;;
10643;SDS011;5370;50.132;8.626;2024-02-26T04:49:09;2.93;;;2.23;;
10643;SDS011;5370;50.132;8.626;2024-02-26T04:51:34;3.57;;;2.27;;
10643;SDS011;5370;50.132;8.626;2024-02-26T04:54:00;4.17;;;2.27;;
10643;SDS011;5370;50.132;8.626;2024-02-26T04:56:25;2.10;;;1.90;;
10643;SDS011;5370;50.132;8.626;2024-02-26T04:58:51;3.07;;;2.30;;
10643;SDS011;5370;50.132;8.626;2024-02-26T05:01:17;2.47;;;2.27;;
10643;SDS011;5370;50.132;8.626;2024-02-26T05:03:43;3.80;;;2.37;;
10643;SDS011;5370;50.132;8.626;2024-02-26T05:06:09;3.87;;;2.63;;
10643;SDS011;5370;50.132;8.626;2024-02-26T05:08:35;2.50;;;2.30;;
10643;SDS011;5370;50.132;8.626;2024-02-26T05:11:03;3.77;;;2.60;;
10643;SDS011;5370;50.132;8.626;2024-02-26T05:13:29;3.07;;;2.27;;
10643;SDS011;5370;50.132;8.626;2024-02-26T05:15:55;3.13;;;2.30;;
10643;SDS011;5370;50.132;8.626;2024-02-26T05:18:21;3.07;;;2.20;;
10643;SDS011;5370;50.132;8.626;2024-02-26T05:20:47;4.97;;;2.93;;
10643;SDS011;5370;50.132;8.626;2024-02-26T05:23:13;3.33;;;2.70;;
10643;SDS011;5370;50.132;8.626;2024-02-26T05:25:38;8.07;;;2.70;;
10643;SDS011;5370;50.132;8.626;2024-02-26T05:28:04;4.47;;;3.10;;
10643;SDS011;5370;50.132;8.626;2024-02-26T05:30:29;5.53;;;2.53;;
10643;SDS011;5370;50.132;8.626;2024-02-26T05:32:55;3.90;;;3.00;;
10643;SDS011;5370;50.132;8.626;2024-02-26T05:35:21;6.40;;;2.87;;
10643;SDS011;5370;50.132;8.626;2024-02-26T05:37:46;4.03;;;3.00;;
10643;SDS011;5370;50.132;8.626;2024-02-26T05:40:12;4.57;;;3.50;;
10643;SDS011;5370;50.132;8.626;2024-02-26T05:42:37;3.50;;;2.67;;
10643;SDS011;5370;50.132;8.626;2024-02-26T05:45:03;6.87;;;3.40;;
10643;SDS011;5370;50.132;8.626;2024-02-26T05:47:32;3.73;;;3.07;;
10643;SDS011;5370;50.132;8.626;2024-02-26T05:49:58;3.90;;;3.23;;
10643;SDS011;5370;50.132;8.626;2024-02-26T05:52:25;4.60;;;2.77;;
10643;SDS011;5370;50.132;8.626;2024-02-26T05:54:51;4.57;;;2.80;;
10643;SDS011;5370;50.132;8.626;2024-02-26T05:57:17;3.97;;;3.17;;
10643;SDS011;5370;50.132;8.626;2024-02-26T05:59:43;4.10;;;2.80;;
10643;SDS011;5370;50.132;8.626;2024-02-26T06:02:09;7.43;;;3.53;;
10643;SDS011;5370;50.132;8.626;2024-02-26T06:04:34;4.33;;;3.47;;
10643;SDS011;5370;50.132;8.626;2024-02-26T06:07:00;3.80;;;3.40;;
10643;SDS011;5370;50.132;8.626;2024-02-26T06:09:25;7.50;;;3.97;;
10643;SDS011;5370;50.132;8.626;2024-02-26T06:11:51;5.33;;;3.33;;
10643;SDS011;5370;50.132;8.626;2024-02-26T06:14:17;4.10;;;3.13;;
10643;SDS011;5370;50.132;8.626;2024-02-26T06:16:43;4.80;;;3.70;;
10643;SDS011;5370;50.132;8.626;2024-02-26T06:19:09;6.57;;;3.40;;
10643;SDS011;5370;50.132;8.626;2024-02-26T06:21:35;6.73;;;4.20;;
10643;SDS011;5370;50.132;8.626;2024-02-26T06:24:01;8.10;;;3.80;;
10643;SDS011;5370;50.132;8.626;2024-02-26T06:26:27;7.30;;;3.77;;
10643;SDS011;5370;50.132;8.626;2024-02-26T06:28:54;4.73;;;3.50;;
10643;SDS011;5370;50.132;8.626;2024-02-26T06:31:21;5.07;;;4.13;;
10643;SDS011;5370;50.132;8.626;2024-02-26T06:33:47;7.27;;;3.73;;
10643;SDS011;5370;50.132;8.626;2024-02-26T06:36:13;5.43;;;4.40;;
10643;SDS011;5370;50.132;8.626;2024-02-26T06:38:40;4.33;;;3.53;;
10643;SDS011;5370;50.132;8.626;2024-02-26T06:41:05;7.60;;;4.03;;
10643;SDS011;5370;50.132;8.626;2024-02-26T06:43:31;6.23;;;3.67;;
10643;SDS011;5370;50.132;8.626;2024-02-26T06:45:56;6.63;;;3.97;;
10643;SDS011;5370;50.132;8.626;2024-02-26T06:48:23;9.60;;;4.60;;
10643;SDS011;5370;50.132;8.626;2024-02-26T06:50:49;7.67;;;4.50;;
10643;SDS011;5370;50.132;8.626;2024-02-26T06:53:15;5.77;;;3.90;;
10643;SDS011;5370;50.132;8.626;2024-02-26T06:55:41;7.17;;;3.73;;
10643;SDS011;5370;50.132;8.626;2024-02-26T06:58:07;9.87;;;3.90;;
10643;SDS011;5370;50.132;8.626;2024-02-26T07:00:33;7.03;;;4.27;;
10643;SDS011;5370;50.132;8.626;2024-02-26T07:02:58;5.33;;;3.90;;
10643;SDS011;5370;50.132;8.626;2024-02-26T07:05:24;7.87;;;4.40;;
10643;SDS011;5370;50.132;8.626;2024-02-26T07:07:49;4.13;;;3.73;;
10643;SDS011;5370;50.132;8.626;2024-02-26T07:10:15;4.20;;;3.40;;
10643;SDS011;5370;50.132;8.626;2024-02-26T07:12:40;4.60;;;3.40;;
10643;SDS011;5370;50.132;8.626;2024-02-26T07:15:06;5.87;;;3.90;;
10643;SDS011;5370;50.132;8.626;2024-02-26T07:17:33;5.87;;;3.77;;
10643;SDS011;5370;50.132;8.626;2024-02-26T07:20:01;51.40;;;7.87;;
10643;SDS011;5370;50.132;8.626;2024-02-26T07:22:30;8.00;;;4.23;;
10643;SDS011;5370;50.132;8.626;2024-02-26T07:24:56;5.43;;;3.90;;
10643;SDS011;5370;50.132;8.626;2024-02-26T07:27:21;8.40;;;3.33;;
10643;SDS011;5370;50.132;8.626;2024-02-26T07:29:47;6.40;;;4.00;;
10643;SDS011;5370;50.132;8.626;2024-02-26T07:32:12;6.00;;;3.83;;
10643;SDS011;5370;50.132;8.626;2024-02-26T07:34:38;6.17;;;3.50;;
10643;SDS011;5370;50.132;8.626;2024-02-26T07:37:06;7.50;;;3.83;;
10643;SDS011;5370;50.132;8.626;2024-02-26T07:39:38;6.83;;;3.50;;
10643;SDS011;5370;50.132;8.626;2024-02-26T07:42:04;8.13;;;4.13;;
10643;SDS011;5370;50.132;8.626;2024-02-26T07:44:29;8.47;;;4.73;;
10643;SDS011;5370;50.132;8.626;2024-02-26T07:46:55;7.50;;;4.00;;
10643;SDS011;5370;50.132;8.626;2024-02-26T07:49:20;3.63;;;3.27;;
10643;SDS011;5370;50.132;8.626;2024-02-26T07:51:46;7.23;;;4.27;;
10643;SDS011;5370;50.132;8.626;2024-02-26T07:54:11;6.90;;;4.80;;
10643;SDS011;5370;50.132;8.626;2024-02-26T07:56:37;20.27;;;10.90;;
10643;SDS011;5370;50.132;8.626;2024-02-26T07:59:02;17.03;;;9.07;;
10643;SDS011;5370;50.132;8.626;2024-02-26T08:01:28;7.53;;;4.13;;
10643;SDS011;5370;50.132;8.626;2024-02-26T08:03:54;24.00;;;11.73;;
10643;SDS011;5370;50.132;8.626;2024-02-26T08:06:19;4.30;;;3.63;;
10643;SDS011;5370;50.132;8.626;2024-02-26T08:08:45;4.80;;;3.43;;
10643;SDS011;5370;50.132;8.626;2024-02-26T08:11:10;6.30;;;3.93;;
10643;SDS011;5370;50.132;8.626;2024-02-26T08:13:36;6.80;;;3.80;;
10643;SDS011;5370;50.132;8.626;2024-02-26T08:16:01;4.33;;;3.93;;
10643;SDS011;5370;50.132;8.626;2024-02-26T08:18:27;11.60;;;4.37;;
10643;SDS011;5370;50.132;8.626;2024-02-26T08:20:52;6.17;;;4.00;;
10643;SDS011;5370;50.132;8.626;2024-02-26T08:23:18;5.53;;;4.33;;
10643;SDS011;5370;50.132;8.626;2024-02-26T08:25:43;6.47;;;4.33;;
10643;SDS011;5370;50.132;8.626;2024-02-26T08:28:09;5.03;;;3.83;;
10643;SDS011;5370;50.132;8.626;2024-02-26T08:30:38;5.40;;;4.13;;
10643;SDS011;5370;50.132;8.626;2024-02-26T08:33:03;6.03;;;3.80;;
10643;SDS011;5370;50.132;8.626;2024-02-26T08:35:29;4.57;;;3.57;;
10643;SDS011;5370;50.132;8.626;2024-02-26T08:37:54;6.73;;;4.00;;
10643;SDS011;5370;50.132;8.626;2024-02-26T08:40:20;4.13;;;3.57;;
10643;SDS011;5370;50.132;8.626;2024-02-26T08:42:46;4.10;;;3.70;;
10643;SDS011;5370;50.132;8.626;2024-02-26T08:45:12;4.37;;;3.80;;
10643;SDS011;5370;50.132;8.626;2024-02-26T08:47:38;9.20;;;4.30;;
10643;SDS011;5370;50.132;8.626;2024-02-26T08:50:03;6.57;;;3.30;;
10643;SDS011;5370;50.132;8.626;2024-02-26T08:52:29;9.17;;;4.93;;
10643;SDS011;5370;50.132;8.626;2024-02-26T08:54:55;5.93;;;4.13;;
10643;SDS011;5370;50.132;8.626;2024-02-26T08:57:21;8.50;;;5.20;;
10643;SDS011;5370;50.132;8.626;2024-02-26T08:59:47;6.53;;;3.80;;
10643;SDS011;5370;50.132;8.626;2024-02-26T09:02:13;5.97;;;4.17;;
10643;SDS011;5370;50.132;8.626;2024-02-26T09:04:38;11.03;;;4.37;;
10643;SDS011;5370;50.132;8.626;2024-02-26T09:07:04;5.20;;;3.97;;
10643;SDS011;5370;50.132;8.626;2024-02-26T09:09:29;5.03;;;4.00;;
10643;SDS011;5370;50.132;8.626;2024-02-26T09:11:55;6.67;;;4.20;;
10643;SDS011;5370;50.132;8.626;2024-02-26T09:14:21;6.53;;;4.60;;
10643;SDS011;5370;50.132;8.626;2024-02-26T09:16:46;5.00;;;2.87;;
10643;SDS011;5370;50.132;8.626;2024-02-26T09:19:16;6.87;;;4.30;;
10643;SDS011;5370;50.132;8.626;2024-02-26T09:21:42;7.80;;;4.53;;
10643;SDS011;5370;50.132;8.626;2024-02-26T09:24:11;10.20;;;4.80;;
10643;SDS011;5370;50.132;8.626;2024-02-26T09:26:37;6.20;;;4.40;;
10643;SDS011;5370;50.132;8.626;2024-02-26T09:29:03;7.73;;;4.43;;
10643;SDS011;5370;50.132;8.626;2024-02-26T09:31:29;5.93;;;4.80;;
10643;SDS011;5370;50.132;8.626;2024-02-26T09:33:55;7.70;;;4.43;;
10643;SDS011;5370;50.132;8.626;2024-02-26T09:36:20;6.13;;;4.63;;
10643;SDS011;5370;50.132;8.626;2024-02-26T09:38:46;6.57;;;4.00;;
10643;SDS011;5370;50.132;8.626;2024-02-26T09:41:15;6.97;;;5.00;;
10643;SDS011;5370;50.132;8.626;2024-02-26T09:43:41;6.73;;;4.93;;
10643;SDS011;5370;50.132;8.626;2024-02-26T09:46:10;5.07;;;3.37;;
10643;SDS011;5370;50.132;8.626;2024-02-26T09:48:36;9.60;;;5.03;;
10643;SDS011;5370;50.132;8.626;2024-02-26T09:51:02;11.13;;;4.80;;
10643;SDS011;5370;50.132;8.626;2024-02-26T09:53:29;5.70;;;4.47;;
10643;SDS011;5370;50.132;8.626;2024-02-26T09:55:57;8.57;;;4.90;;
10643;SDS011;5370;50.132;8.626;2024-02-26T09:58:23;6.27;;;5.10;;
10643;SDS011;5370;50.132;8.626;2024-02-26T10:00:53;5.37;;;4.77;;
10643;SDS011;5370;50.132;8.626;2024-02-26T10:03:24;9.13;;;5.30;;
10643;SDS011;5370;50.132;8.626;2024-02-26T10:05:53;7.90;;;4.77;;
10643;SDS011;5370;50.132;8.626;2024-02-26T10:08:20;7.70;;;5.53;;
10643;SDS011;5370;50.132;8.626;2024-02-26T10:10:47;12.33;;;5.20;;
10643;SDS011;5370;50.132;8.626;2024-02-26T10:13:13;6.00;;;4.63;;
10643;SDS011;5370;50.132;8.626;2024-02-26T10:15:38;8.63;;;4.40;;
10643;SDS011;5370;50.132;8.626;2024-02-26T10:18:05;6.10;;;4.83;;
10643;SDS011;5370;50.132;8.626;2024-02-26T10:20:31;8.87;;;5.30;;
10643;SDS011;5370;50.132;8.626;2024-02-26T10:22:57;9.47;;;5.30;;
10643;SDS011;5370;50.132;8.626;2024-02-26T10:25:23;9.33;;;4.93;;
10643;SDS011;5370;50.132;8.626;2024-02-26T10:27:48;6.20;;;4.87;;
10643;SDS011;5370;50.132;8.626;2024-02-26T10:30:17;12.83;;;5.57;;
10643;SDS011;5370;50.132;8.626;2024-02-26T10:32:47;8.13;;;4.63;;
10643;SDS011;5370;50.132;8.626;2024-02-26T10:35:14;6.30;;;4.80;;
10643;SDS011;5370;50.132;8.626;2024-02-26T10:37:41;9.70;;;4.50;;
10643;SDS011;5370;50.132;8.626;2024-02-26T10:40:13;5.97;;;4.53;;
10643;SDS011;5370;50.132;8.626;2024-02-26T10:42:40;8.13;;;4.33;;
10643;SDS011;5370;50.132;8.626;2024-02-26T10:45:06;9.23;;;4.30;;
10643;SDS011;5370;50.132;8.626;2024-02-26T10:47:34;7.63;;;4.80;;
10643;SDS011;5370;50.132;8.626;2024-02-26T10:50:03;7.23;;;4.27;;
10643;SDS011;5370;50.132;8.626;2024-02-26T10:52:34;5.40;;;4.43;;
10643;SDS011;5370;50.132;8.626;2024-02-26T10:55:01;6.93;;;4.37;;
10643;SDS011;5370;50.132;8.626;2024-02-26T10:57:32;7.50;;;4.60;;
10643;SDS011;5370;50.132;8.626;2024-02-26T11:00:00;9.50;;;4.10;;
10643;SDS011;5370;50.132;8.626;2024-02-26T11:02:29;11.10;;;4.60;;
10643;SDS011;5370;50.132;8.626;2024-02-26T11:05:02;7.67;;;5.23;;
10643;SDS011;5370;50.132;8.626;2024-02-26T11:07:31;9.40;;;5.63;;
10643;SDS011;5370;50.132;8.626;2024-02-26T11:09:59;5.30;;;4.50;;
10643;SDS011;5370;50.132;8.626;2024-02-26T11:12:25;8.20;;;4.80;;
10643;SDS011;5370;50.132;8.626;2024-02-26T11:14:53;4.57;;;4.03;;
10643;SDS011;5370;50.132;8.626;2024-02-26T11:17:22;7.27;;;4.63;;
10643;SDS011;5370;50.132;8.626;2024-02-26T11:19:49;5.97;;;4.23;;
10643;SDS011;5370;50.132;8.626;2024-02-26T11:22:16;5.73;;;4.30;;
10643;SDS011;5370;50.132;8.626;2024-02-26T11:24:42;4.50;;;3.60;;
10643;SDS011;5370;50.132;8.626;2024-02-26T11:27:09;5.33;;;4.27;;
10643;SDS011;5370;50.132;8.626;2024-02-26T11:29:41;5.33;;;4.40;;
10643;SDS011;5370;50.132;8.626;2024-02-26T11:32:09;5.00;;;4.20;;
10643;SDS011;5370;50.132;8.626;2024-02-26T11:34:35;4.67;;;3.43;;
10643;SDS011;5370;50.132;8.626;2024-02-26T11:37:11;5.53;;;4.27;;
10643;SDS011;5370;50.132;8.626;2024-02-26T11:39:39;6.03;;;3.87;;
10643;SDS011;5370;50.132;8.626;2024-02-26T11:42:06;7.33;;;4.13;;
10643;SDS011;5370;50.132;8.626;2024-02-26T11:44:33;9.00;;;4.50;;
10643;SDS011;5370;50.132;8.626;2024-02-26T11:46:59;5.50;;;4.13;;
10643;SDS011;5370;50.132;8.626;2024-02-26T11:49:38;3.83;;;3.53;;
10643;SDS011;5370;50.132;8.626;2024-02-26T11:52:05;4.03;;;3.60;;
10643;SDS011;5370;50.132;8.626;2024-02-26T11:54:45;4.13;;;3.73;;
10643;SDS011;5370;50.132;8.626;2024-02-26T11:57:25;6.77;;;4.20;;
10643;SDS011;5370;50.132;8.626;2024-02-26T12:00:14;5.80;;;3.77;;
10643;SDS011;5370;50.132;8.626;2024-02-26T12:05:17;3.73;;;3.33;;
10643;SDS011;5370;50.132;8.626;2024-02-26T12:07:55;5.00;;;3.80;;
10643;SDS011;5370;50.132;8.626;2024-02-26T12:13:33;6.43;;;3.37;;
10643;SDS011;5370;50.132;8.626;2024-02-26T12:15:44;3.70;;;3.20;;
10643;SDS011;5370;50.132;8.626;2024-02-26T12:18:15;5.33;;;2.87;;
10643;SDS011;5370;50.132;8.626;2024-02-26T12:20:42;3.97;;;3.17;;
10643;SDS011;5370;50.132;8.626;2024-02-26T12:23:17;5.37;;;3.47;;
10643;SDS011;5370;50.132;8.626;2024-02-26T12:25:43;9.90;;;3.50;;
10643;SDS011;5370;50.132;8.626;2024-02-26T12:28:09;4.70;;;3.77;;
10643;SDS011;5370;50.132;8.626;2024-02-26T12:30:34;3.93;;;3.40;;
10643;SDS011;5370;50.132;8.626;2024-02-26T12:33:00;4.93;;;3.60;;
10643;SDS011;5370;50.132;8.626;2024-02-26T12:35:27;4.30;;;3.43;;
10643;SDS011;5370;50.132;8.626;2024-02-26T12:37:53;5.23;;;3.50;;
10643;SDS011;5370;50.132;8.626;2024-02-26T12:40:19;7.57;;;4.13;;
10643;SDS011;5370;50.132;8.626;2024-02-26T12:42:45;6.67;;;3.70;;
10643;SDS011;5370;50.132;8.626;2024-02-26T12:45:11;6.03;;;3.37;;
10643;SDS011;5370;50.132;8.626;2024-02-26T12:47:38;4.43;;;3.60;;
10643;SDS011;5370;50.132;8.626;2024-02-26T12:50:04;3.83;;;2.83;;
10643;SDS011;5370;50.132;8.626;2024-02-26T12:52:32;3.57;;;3.27;;
10643;SDS011;5370;50.132;8.626;2024-02-26T12:55:05;6.17;;;3.70;;
10643;SDS011;5370;50.132;8.626;2024-02-26T12:57:34;18.37;;;5.73;;
10643;SDS011;5370;50.132;8.626;2024-02-26T13:00:04;4.70;;;3.50;;
10643;SDS011;5370;50.132;8.626;2024-02-26T13:02:31;3.77;;;3.33;;
10643;SDS011;5370;50.132;8.626;2024-02-26T13:04:59;5.73;;;3.60;;
10643;SDS011;5370;50.132;8.626;2024-02-26T13:07:26;3.50;;;3.20;;
10643;SDS011;5370;50.132;8.626;2024-02-26T13:09:52;4.83;;;3.50;;
10643;SDS011;5370;50.132;8.626;2024-02-26T13:12:18;5.30;;;3.40;;
10643;SDS011;5370;50.132;8.626;2024-02-26T13:14:43;3.03;;;2.40;;
10643;SDS011;5370;50.132;8.626;2024-02-26T13:17:09;4.47;;;3.40;;
10643;SDS011;5370;50.132;8.626;2024-02-26T13:19:35;4.33;;;2.97;;
10643;SDS011;5370;50.132;8.626;2024-02-26T13:22:04;8.30;;;3.20;;
10643;SDS011;5370;50.132;8.626;2024-02-26T13:24:31;4.07;;;3.30;;
10643;SDS011;5370;50.132;8.626;2024-02-26T13:26:57;4.07;;;3.60;;
10643;SDS011;5370;50.132;8.626;2024-02-26T13:29:23;4.77;;;3.40;;
10643;SDS011;5370;50.132;8.626;2024-02-26T13:31:54;4.13;;;3.37;;
10643;SDS011;5370;50.132;8.626;2024-02-26T13:34:22;4.50;;;3.87;;
10643;SDS011;5370;50.132;8.626;2024-02-26T13:36:51;5.87;;;3.83;;
10643;SDS011;5370;50.132;8.626;2024-02-26T13:39:25;5.33;;;3.97;;
10643;SDS011;5370;50.132;8.626;2024-02-26T13:41:51;9.30;;;3.87;;
10643;SDS011;5370;50.132;8.626;2024-02-26T13:44:18;7.18;;;3.50;;
10643;SDS011;5370;50.132;8.626;2024-02-26T13:46:45;3.33;;;2.60;;
10643;SDS011;5370;50.132;8.626;2024-02-26T13:49:10;4.10;;;3.00;;
10643;SDS011;5370;50.132;8.626;2024-02-26T13:51:36;6.53;;;3.47;;
10643;SDS011;5370;50.132;8.626;2024-02-26T13:54:03;4.13;;;3.37;;
10643;SDS011;5370;50.132;8.626;2024-02-26T13:56:29;4.93;;;3.67;;
10643;SDS011;5370;50.132;8.626;2024-02-26T13:58:55;3.10;;;2.80;;
10643;SDS011;5370;50.132;8.626;2024-02-26T14:01:21;5.57;;;3.30;;
10643;SDS011;5370;50.132;8.626;2024-02-26T14:03:46;5.57;;;3.60;;
10643;SDS011;5370;50.132;8.626;2024-02-26T14:06:12;4.37;;;2.77;;
10643;SDS011;5370;50.132;8.626;2024-02-26T14:08:38;4.30;;;3.30;;
10643;SDS011;5370;50.132;8.626;2024-02-26T14:11:03;6.30;;;3.23;;
10643;SDS011;5370;50.132;8.626;2024-02-26T14:13:29;5.37;;;3.67;;
10643;SDS011;5370;50.132;8.626;2024-02-26T14:15:54;5.87;;;3.67;;
10643;SDS011;5370;50.132;8.626;2024-02-26T14:18:20;4.83;;;3.13;;
10643;SDS011;5370;50.132;8.626;2024-02-26T14:20:45;4.20;;;3.37;;
10643;SDS011;5370;50.132;8.626;2024-02-26T14:23:11;4.30;;;3.23;;
10643;SDS011;5370;50.132;8.626;2024-02-26T14:25:36;6.67;;;4.00;;
10643;SDS011;5370;50.132;8.626;2024-02-26T14:28:02;4.83;;;3.20;;
10643;SDS011;5370;50.132;8.626;2024-02-26T14:30:28;10.17;;;4.50;;
10643;SDS011;5370;50.132;8.626;2024-02-26T14:32:54;7.90;;;3.60;;
10643;SDS011;5370;50.132;8.626;2024-02-26T14:35:19;5.30;;;3.87;;
10643;SDS011;5370;50.132;8.626;2024-02-26T14:37:45;5.27;;;3.30;;
10643;SDS011;5370;50.132;8.626;2024-02-26T14:40:11;20.37;;;4.67;;
10643;SDS011;5370;50.132;8.626;2024-02-26T14:42:37;6.97;;;3.60;;
10643;SDS011;5370;50.132;8.626;2024-02-26T14:45:02;3.40;;;2.90;;
10643;SDS011;5370;50.132;8.626;2024-02-26T14:47:32;3.40;;;3.10;;
10643;SDS011;5370;50.132;8.626;2024-02-26T14:49:57;4.57;;;3.50;;
10643;SDS011;5370;50.132;8.626;2024-02-26T14:52:23;13.83;;;4.87;;
10643;SDS011;5370;50.132;8.626;2024-02-26T14:54:48;4.67;;;3.23;;
10643;SDS011;5370;50.132;8.626;2024-02-26T14:57:16;9.87;;;3.97;;
10643;SDS011;5370;50.132;8.626;2024-02-26T14:59:41;7.83;;;3.43;;
10643;SDS011;5370;50.132;8.626;2024-02-26T15:02:08;3.97;;;3.30;;